Ada, MI (49301)

10:36 AM EST on December 06, 2016 (GMT -0500)
Timber Canyon | | Change Station

Elev 755 ft 42.93 °N, 85.48 °W | Updated 467 days ago

Cloudy
Cloudy
39 °F
Feels Like 34 °F
N
7
Wind Variable Wind from SE
Gusts mph

Today
High -- | Low -- °F
--% Chance of Precip.
Yesterday
High -- | Low -- °F
Precip. -- in
Pressure 29.83 in
Visibility 2.5 miles
Clouds Mostly Cloudy 600 ft
Overcast 21000 ft
Windchill 34 °F
Dew Point 33 °F
Humidity 77%
Rainfall in
Snow Depth Not available.
7:58 AM 5:07 PM
Waxing Crescent, 42% visible
METAR KGRR 061453Z 06007KT 2 1/2SM BR BKN006 OVC210 M01/M02 A2980 RMK AO2 SLP100 T10061022 58020
Pressure 29.83 in
Visibility 2.5 miles
Clouds Mostly Cloudy 600 ft
Overcast 21000 ft
Windchill 34 °F
Dew Point 33 °F
Humidity 77%
Rainfall in
Snow Depth Not available.
7:58 AM 5:07 PM
Waxing Crescent, 42% visible
METAR KGRR 061453Z 06007KT 2 1/2SM BR BKN006 OVC210 M01/M02 A2980 RMK AO2 SLP100 T10061022 58020

10-Day Weather Forecast

Almanac

Astronomy

Dec. 06, 2016 Rise Set
Actual Time
Civil Twilight
Nautical Twilight
Astronomical Twilight
Moon
Length of Visible Light
Length of Day
Tomorrow will be .
, % of the Moon is Illuminated

Today's Extremes

State Highs State Lows

Community

WunderPhotos

Upload Photos

1,955,957 photos uploaded!

WunderBlog® & News

Nearby

Air Quality

  Air Quality AQ Index Pollutant
Not available.

Snow Depth

Station Depth Elevation

Earthquake Activity

City Distance Mag. Time & Date
Minimum magnitude displayed is 2.5.

Coastal Water Temperatures

Place Temperature

Stations

Nearby Weather Stations

Station Location Temp. Windchill Dew Point Humidity Wind Precip. Elev Updated Type
                   

Watches & Warnings

There are currently no watches in effect.